createdAt,value
2023-05-22T14:32:24.725Z,1.70
2023-05-22T14:35:10.793Z,1.80
2023-05-22T14:38:03.815Z,1.60
2023-05-22T14:41:09.643Z,1.70
2023-05-22T14:43:56.455Z,1.70
2023-05-22T14:46:43.631Z,1.70
2023-05-22T14:49:29.734Z,1.70
2023-05-22T14:52:15.402Z,1.60
2023-05-22T14:55:00.819Z,1.80
2023-05-22T14:57:46.626Z,1.70
2023-05-22T15:00:31.963Z,2.10
2023-05-22T15:03:19.774Z,1.60
2023-05-22T15:06:09.279Z,1.80
2023-05-22T15:08:56.816Z,1.60
2023-05-22T15:11:53.535Z,1.80
2023-05-22T15:14:39.395Z,1.80
2023-05-22T15:17:24.964Z,1.70
2023-05-22T15:29:19.268Z,1.50
2023-05-22T15:32:04.985Z,1.90
2023-05-22T15:34:49.933Z,1.80
2023-05-22T15:40:41.208Z,2.10
2023-05-22T15:43:26.405Z,2.10
2023-05-22T15:46:13.976Z,2.00
2023-05-22T15:48:58.999Z,1.50
2023-05-22T16:19:35.541Z,1.70
2023-05-22T16:29:09.113Z,1.80
2023-05-22T16:31:56.437Z,1.70
2023-05-22T16:34:41.687Z,1.70
2023-05-22T16:37:27.827Z,1.70
2023-05-22T16:40:13.173Z,1.40
2023-05-22T16:42:58.595Z,1.70
2023-05-22T16:45:46.890Z,1.70
2023-05-22T16:48:32.236Z,1.70
2023-05-22T16:51:17.727Z,1.50
2023-05-22T16:57:05.429Z,2.00
2023-05-22T16:59:50.951Z,1.80
2023-05-22T17:02:37.127Z,1.70
2023-05-22T17:05:23.586Z,1.70
2023-05-22T17:11:05.624Z,2.00
2023-05-22T17:13:51.385Z,1.50
2023-05-22T17:16:37.543Z,2.00
2023-05-22T17:19:23.458Z,1.80
2023-05-22T17:22:08.753Z,1.90
2023-05-22T17:24:54.050Z,2.00
2023-05-22T17:27:39.778Z,1.60
2023-05-22T17:30:25.317Z,1.60
2023-05-22T17:33:11.579Z,1.70
2023-05-22T17:44:58.622Z,1.80
2023-05-22T17:51:04.367Z,1.80
2023-05-22T17:53:55.215Z,2.00
2023-05-22T17:56:40.160Z,1.90
2023-05-22T17:59:25.270Z,2.20
2023-05-22T18:05:51.231Z,1.80
2023-05-22T18:08:39.627Z,1.80
2023-05-22T18:14:43.884Z,1.90
2023-05-22T18:17:29.144Z,2.40
2023-05-22T18:20:16.165Z,1.90
2023-05-22T18:29:06.386Z,2.40
2023-05-22T18:31:52.574Z,2.20
2023-05-22T18:37:29.091Z,2.20
2023-05-22T18:40:14.642Z,2.30
2023-05-22T19:18:03.981Z,2.10
2023-05-22T19:20:49.671Z,2.50
2023-05-22T19:23:36.086Z,2.00
2023-05-22T19:26:22.296Z,2.40
2023-05-22T19:29:07.730Z,2.50
2023-05-22T19:31:53.133Z,2.20
2023-05-22T19:34:39.263Z,2.50
2023-05-22T19:37:24.196Z,2.50
2023-05-22T19:40:10.527Z,2.20
2023-05-22T19:42:55.520Z,2.30
2023-05-22T19:45:40.700Z,2.60
2023-05-22T19:48:26.535Z,2.60
2023-05-22T19:51:11.452Z,2.70
2023-05-22T19:53:56.587Z,2.90
2023-05-22T19:56:41.988Z,2.50
2023-05-22T19:59:27.076Z,2.30
2023-05-22T20:02:12.478Z,2.70
2023-05-22T20:04:57.632Z,2.40
2023-05-22T20:07:42.949Z,2.60
2023-05-22T20:10:28.316Z,3.20
2023-05-22T20:13:13.819Z,2.60
2023-05-22T20:16:03.218Z,2.30
2023-05-22T20:18:57.348Z,3.10
2023-05-22T20:21:42.610Z,2.80
2023-05-22T20:24:27.934Z,2.40
2023-05-22T20:27:13.628Z,2.60
2023-05-22T20:30:00.288Z,2.90
2023-05-22T20:36:01.843Z,2.70
2023-05-22T20:38:47.854Z,2.70
2023-05-22T20:41:33.429Z,2.50
2023-05-22T20:44:18.801Z,2.60
2023-05-22T20:47:04.911Z,2.80
2023-05-22T20:49:50.357Z,3.00
2023-05-22T20:52:36.590Z,2.90
2023-05-22T20:55:22.026Z,2.80
2023-05-22T21:00:57.565Z,2.80
2023-05-22T21:03:51.210Z,2.60
2023-05-22T21:06:36.439Z,2.90
2023-05-22T21:09:21.547Z,2.90
2023-05-22T21:12:06.932Z,2.70
2023-05-22T21:14:51.791Z,3.00
2023-05-22T21:17:38.704Z,3.00
2023-05-22T21:23:09.254Z,2.60
2023-05-22T21:25:54.538Z,3.00
2023-05-22T21:28:39.827Z,2.70
2023-05-22T21:31:25.434Z,2.60
2023-05-22T21:34:10.926Z,3.20
2023-05-22T21:36:56.202Z,3.00
2023-05-22T21:39:41.651Z,2.90
2023-05-22T21:45:19.673Z,3.10
2023-05-22T21:48:04.914Z,3.00
2023-05-22T21:50:50.163Z,3.10
2023-05-22T21:53:35.332Z,3.50
2023-05-22T21:56:20.902Z,3.00
2023-05-22T21:59:08.020Z,4.10
2023-05-22T22:02:25.527Z,3.40
2023-05-22T22:08:04.967Z,2.90
2023-05-22T22:10:50.400Z,2.90
2023-05-22T22:13:35.784Z,2.70
2023-05-22T22:16:21.581Z,3.30
2023-05-22T22:19:06.945Z,2.90
2023-05-22T22:21:52.228Z,3.40
2023-05-22T22:24:37.192Z,3.30
2023-05-22T22:30:26.801Z,3.00
2023-05-22T22:39:25.957Z,3.60
2023-05-22T22:42:11.214Z,3.50
2023-05-22T22:44:56.240Z,3.30
2023-05-22T22:47:41.739Z,3.10
2023-05-22T22:56:35.536Z,3.10
2023-05-22T22:59:21.050Z,3.20
2023-05-22T23:02:06.571Z,3.30
2023-05-22T23:07:47.808Z,3.10
2023-05-22T23:10:32.825Z,3.10
2023-05-22T23:13:17.817Z,3.50
2023-05-22T23:16:03.504Z,3.00
2023-05-22T23:18:48.659Z,3.30
2023-05-22T23:21:34.937Z,3.10
2023-05-22T23:24:20.068Z,3.20
2023-05-22T23:27:05.592Z,3.60
2023-05-22T23:29:50.932Z,3.60
2023-05-22T23:32:36.400Z,3.40
2023-05-22T23:35:21.392Z,3.10
2023-05-22T23:38:07.143Z,3.30
2023-05-22T23:40:52.244Z,2.90
2023-05-22T23:47:49.174Z,3.20
2023-05-22T23:50:43.747Z,5.00
2023-05-22T23:53:28.828Z,3.30
2023-05-22T23:56:13.866Z,3.10
2023-05-22T23:58:59.129Z,3.70
